sensor_id;sensor_type;location;lat;lon;timestamp;P1;P2;P0
68198;PMS7003;55021;51.554;17.044;2024-03-17T00:27:09;12.00;9.00;2.00
68198;PMS7003;55021;51.554;17.044;2024-03-17T00:57:15;9.25;8.00;1.75
68198;PMS7003;55021;51.554;17.044;2024-03-17T01:27:27;12.00;10.00;3.00
68198;PMS7003;55021;51.554;17.044;2024-03-17T01:57:31;10.25;8.00;2.00
68198;PMS7003;55021;51.554;17.044;2024-03-17T02:27:38;11.75;8.50;2.00
68198;PMS7003;55021;51.554;17.044;2024-03-17T02:57:48;8.00;8.00;2.00
68198;PMS7003;55021;51.554;17.044;2024-03-17T03:27:52;9.00;7.50;1.00
68198;PMS7003;55021;51.554;17.044;2024-03-17T03:42:58;10.25;7.00;2.00
68198;PMS7003;55021;51.554;17.044;2024-03-17T03:58:00;8.00;7.00;1.00
68198;PMS7003;55021;51.554;17.044;2024-03-17T04:13:05;10.00;6.50;2.00
68198;PMS7003;55021;51.554;17.044;2024-03-17T04:43:10;12.00;10.00;2.00
68198;PMS7003;55021;51.554;17.044;2024-03-17T05:13:17;8.00;8.00;2.00
68198;PMS7003;55021;51.554;17.044;2024-03-17T05:43:23;9.50;8.00;2.00
68198;PMS7003;55021;51.554;17.044;2024-03-17T06:13:30;11.00;8.00;2.00
68198;PMS7003;55021;51.554;17.044;2024-03-17T06:43:38;8.75;8.00;2.00
68198;PMS7003;55021;51.554;17.044;2024-03-17T07:13:42;10.75;7.25;1.50
68198;PMS7003;55021;51.554;17.044;2024-03-17T07:43:47;6.25;6.25;1.75
68198;PMS7003;55021;51.554;17.044;2024-03-17T08:13:52;9.25;7.50;1.25
68198;PMS7003;55021;51.554;17.044;2024-03-17T08:43:56;9.25;8.00;2.00
68198;PMS7003;55021;51.554;17.044;2024-03-17T09:14:03;7.75;7.75;2.00
68198;PMS7003;55021;51.554;17.044;2024-03-17T09:44:11;8.25;6.00;2.00
68198;PMS7003;55021;51.554;17.044;2024-03-17T10:14:19;9.75;9.00;2.00
68198;PMS7003;55021;51.554;17.044;2024-03-17T10:44:27;7.00;7.00;2.00
68198;PMS7003;55021;51.554;17.044;2024-03-17T11:14:40;5.50;5.50;1.00
68198;PMS7003;55021;51.554;17.044;2024-03-17T11:29:42;7.00;7.00;1.00
68198;PMS7003;55021;51.554;17.044;2024-03-17T11:59:56;8.25;7.25;2.00
68198;PMS7003;55021;51.554;17.044;2024-03-17T12:30:03;8.50;6.25;2.00
68198;PMS7003;55021;51.554;17.044;2024-03-17T13:00:17;8.00;8.00;4.00
68198;PMS7003;55021;51.554;17.044;2024-03-17T13:30:28;9.00;7.75;2.50
68198;PMS7003;55021;51.554;17.044;2024-03-17T14:00:42;8.50;7.00;2.25
68198;PMS7003;55021;51.554;17.044;2024-03-17T14:30:46;10.00;9.00;3.25
68198;PMS7003;55021;51.554;17.044;2024-03-17T15:00:51;12.00;10.00;3.00
68198;PMS7003;55021;51.554;17.044;2024-03-17T15:31:00;12.00;12.00;4.75
68198;PMS7003;55021;51.554;17.044;2024-03-17T16:01:12;19.50;18.00;8.25
68198;PMS7003;55021;51.554;17.044;2024-03-17T16:31:18;34.00;31.50;18.25
68198;PMS7003;55021;51.554;17.044;2024-03-17T17:01:36;82.00;59.00;34.00
68198;PMS7003;55021;51.554;17.044;2024-03-17T17:31:42;24.75;21.50;12.00
68198;PMS7003;55021;51.554;17.044;2024-03-17T17:46:44;67.50;49.50;29.75
68198;PMS7003;55021;51.554;17.044;2024-03-17T18:16:49;40.00;30.25;17.00
68198;PMS7003;55021;51.554;17.044;2024-03-17T18:46:54;22.25;19.50;8.25
68198;PMS7003;55021;51.554;17.044;2024-03-17T19:17:00;43.75;39.25;22.75
68198;PMS7003;55021;51.554;17.044;2024-03-17T19:47:04;18.00;15.00;7.00
68198;PMS7003;55021;51.554;17.044;2024-03-17T20:17:12;13.00;12.00;5.00
68198;PMS7003;55021;51.554;17.044;2024-03-17T20:47:17;20.50;16.50;7.00
68198;PMS7003;55021;51.554;17.044;2024-03-17T21:17:22;17.75;13.75;5.50
68198;PMS7003;55021;51.554;17.044;2024-03-17T21:32:24;26.50;22.00;11.25
68198;PMS7003;55021;51.554;17.044;2024-03-17T22:02:29;10.25;10.00;4.75
68198;PMS7003;55021;51.554;17.044;2024-03-17T22:32:34;9.50;9.00;3.00
68198;PMS7003;55021;51.554;17.044;2024-03-17T23:02:38;12.75;12.50;6.00
68198;PMS7003;55021;51.554;17.044;2024-03-17T23:32:43;13.00;8.00;2.00
